Time;durP1;ratioP1;P1;durP2;ratioP2;P2;SDS_P1;SDS_P2;PMS_P1;PMS_P2;Temp;Humidity;BMP_temperature;BMP_pressure;BME280_temperature;BME280_humidity;BME280_pressure;Samples;Min_cycle;Max_cycle;Signal;HPM_P1;HPM_P2
2021/03/22 00:01:06;;;;;;;5.85;3.20;;;4.90;76.40;;;;;;5061866;28;20215;-44
2021/03/22 00:03:33;;;;;;;4.95;2.17;;;4.90;76.70;;;;;;5060144;28;20196;-44
2021/03/22 00:06:01;;;;;;;3.67;1.90;;;4.90;76.90;;;;;;5061282;28;20184;-44
2021/03/22 00:08:27;;;;;;;3.60;1.77;;;4.90;77.10;;;;;;5060523;28;20211;-45
2021/03/22 00:10:53;;;;;;;3.63;1.77;;;4.30;76.60;;;;;;5059930;28;20215;-45
2021/03/22 00:13:22;;;;;;;2.75;1.50;;;4.70;77.30;;;;;;5059528;28;20286;-43
2021/03/22 00:15:49;;;;;;;3.90;1.98;;;4.80;77.30;;;;;;5057877;28;20631;-44
2021/03/22 00:18:18;;;;;;;3.35;1.40;;;4.80;77.70;;;;;;5059034;28;20204;-45
2021/03/22 00:20:45;;;;;;;3.95;1.48;;;4.80;78.10;;;;;;5058116;28;20649;-44
2021/03/22 00:23:12;;;;;;;6.53;1.65;;;4.50;77.40;;;;;;5054367;28;20235;-44
2021/03/22 00:25:38;;;;;;;2.30;1.15;;;4.70;78.10;;;;;;5055728;28;20192;-45
2021/03/22 00:28:06;;;;;;;7.05;1.60;;;4.30;77.60;;;;;;5054919;28;20595;-43
2021/03/22 00:30:35;;;;;;;2.92;1.50;;;4.40;77.70;;;;;;5054580;28;20200;-43
2021/03/22 00:33:02;;;;;;;3.95;2.13;;;4.60;78.00;;;;;;5054285;28;20552;-46
2021/03/22 00:35:29;;;;;;;2.63;1.60;;;4.20;77.90;;;;;;5054352;28;20290;-44
2021/03/22 00:37:57;;;;;;;2.85;1.40;;;4.30;78.10;;;;;;5054221;28;20227;-46
2021/03/22 00:40:27;;;;;;;3.58;1.30;;;4.30;78.20;;;;;;5054217;28;20712;-44
2021/03/22 00:42:53;;;;;;;3.50;1.60;;;4.70;79.40;;;;;;5053978;28;20306;-44
2021/03/22 00:45:21;;;;;;;2.50;1.40;;;4.30;79.10;;;;;;5054285;28;20628;-46
2021/03/22 00:47:49;;;;;;;4.72;1.50;;;4.40;79.40;;;;;;5053550;28;20208;-44
2021/03/22 00:50:21;;;;;;;4.55;1.70;;;4.20;79.50;;;;;;5055396;28;20530;-43
2021/03/22 00:52:48;;;;;;;6.00;2.03;;;4.30;79.80;;;;;;5054605;28;20287;-46
2021/03/22 00:55:16;;;;;;;2.65;1.75;;;4.40;80.00;;;;;;5054305;28;20553;-45
2021/03/22 00:57:42;;;;;;;5.00;2.33;;;4.30;80.20;;;;;;5052888;28;20216;-45
2021/03/22 01:00:17;;;;;;;4.93;2.30;;;4.40;80.50;;;;;;5054031;28;20192;-45
2021/03/22 01:02:44;;;;;;;4.50;2.47;;;4.20;80.30;;;;;;5054216;28;20660;-44
2021/03/22 01:05:11;;;;;;;4.15;2.15;;;4.50;81.30;;;;;;5054237;28;20219;-45
2021/03/22 01:07:37;;;;;;;4.55;2.83;;;4.50;81.80;;;;;;5053870;28;20625;-44
2021/03/22 01:10:09;;;;;;;5.70;2.45;;;4.10;81.80;;;;;;5053915;28;20195;-44
2021/03/22 01:12:36;;;;;;;5.65;2.92;;;4.40;82.40;;;;;;5053591;28;20554;-44
2021/03/22 01:15:04;;;;;;;5.50;2.20;;;3.80;82.00;;;;;;5057114;28;20211;-44
2021/03/22 01:17:30;;;;;;;4.45;2.50;;;4.10;82.90;;;;;;5054816;28;20708;-45
2021/03/22 01:19:56;;;;;;;3.88;2.17;;;4.40;83.30;;;;;;5053509;28;20203;-46
2021/03/22 01:22:23;;;;;;;7.38;2.65;;;4.20;83.50;;;;;;5053347;28;20192;-44
2021/03/22 01:24:49;;;;;;;5.78;3.20;;;4.10;83.70;;;;;;5053745;28;20196;-45
2021/03/22 01:27:15;;;;;;;6.20;2.55;;;4.00;84.00;;;;;;5054330;28;20227;-45
2021/03/22 01:29:42;;;;;;;4.95;2.25;;;4.10;84.20;;;;;;5053702;28;20204;-44
2021/03/22 01:32:10;;;;;;;6.32;2.47;;;4.30;84.70;;;;;;5053456;28;20572;-45
2021/03/22 01:34:37;;;;;;;4.82;2.22;;;4.30;84.90;;;;;;5053186;28;20207;-44
2021/03/22 01:37:05;;;;;;;3.38;2.10;;;4.30;85.00;;;;;;5053267;28;20216;-45
2021/03/22 01:39:35;;;;;;;6.07;2.22;;;4.30;85.40;;;;;;5055936;28;20199;-45
2021/03/22 01:42:22;;;;;;;4.95;2.53;;;4.30;85.50;;;;;;5058656;28;20198;-43
2021/03/22 01:44:56;;;;;;;6.22;2.47;;;4.10;85.40;;;;;;5056292;28;20207;-45
2021/03/22 01:47:27;;;;;;;4.70;1.65;;;4.00;85.50;;;;;;5054350;28;20277;-43
2021/03/22 01:49:57;;;;;;;3.90;2.00;;;4.40;86.00;;;;;;5054232;28;20629;-44
2021/03/22 01:52:26;;;;;;;5.25;2.33;;;4.10;85.10;;;;;;5053460;28;20203;-43
2021/03/22 01:54:53;;;;;;;5.10;2.75;;;4.20;86.30;;;;;;5053213;28;20708;-44
2021/03/22 01:57:33;;;;;;;5.32;2.50;;;3.50;85.70;;;;;;5053547;28;20537;-44
2021/03/22 02:00:09;;;;;;;4.50;2.47;;;4.00;86.50;;;;;;5053624;28;20192;-43
2021/03/22 02:02:36;;;;;;;4.47;1.92;;;4.20;86.70;;;;;;5053295;28;20200;-45
2021/03/22 02:05:04;;;;;;;5.25;2.85;;;4.10;86.80;;;;;;5052640;28;20661;-44
2021/03/22 02:07:31;;;;;;;6.97;2.22;;;4.00;86.90;;;;;;5052690;28;20215;-45
2021/03/22 02:09:57;;;;;;;12.35;2.90;;;4.00;87.10;;;;;;5052458;28;20238;-44
2021/03/22 02:12:24;;;;;;;4.90;2.60;;;4.20;87.10;;;;;;5052167;28;20555;-44
2021/03/22 02:14:53;;;;;;;5.63;2.20;;;3.80;86.70;;;;;;5052672;28;20226;-45
2021/03/22 02:17:29;;;;;;;5.13;2.28;;;4.20;88.10;;;;;;5052558;28;20219;-45
2021/03/22 02:20:42;;;;;;;5.05;2.47;;;3.80;87.90;;;;;;5052496;28;20236;-45
2021/03/22 02:23:59;;;;;;;6.88;3.33;;;4.20;88.90;;;;;;5052208;28;20199;-44
2021/03/22 02:26:43;;;;;;;5.97;2.80;;;4.10;89.20;;;;;;5052142;28;20240;-45
2021/03/22 02:29:28;;;;;;;4.55;2.25;;;3.90;89.60;;;;;;5052028;28;20203;-45
2021/03/22 02:32:11;;;;;;;6.55;2.05;;;3.90;89.80;;;;;;5050710;28;20203;-45
2021/03/22 02:34:44;;;;;;;10.73;3.13;;;4.00;90.20;;;;;;5040165;28;20423;-45
2021/03/22 02:37:23;;;;;;;4.53;2.85;;;4.10;90.50;;;;;;5051769;28;20651;-45
2021/03/22 02:40:00;;;;;;;5.80;2.92;;;4.00;90.90;;;;;;5052043;28;20188;-45
2021/03/22 02:42:28;;;;;;;9.00;2.92;;;3.80;91.10;;;;;;5052006;28;20210;-45
2021/03/22 02:44:54;;;;;;;4.68;2.20;;;3.80;90.80;;;;;;5051881;28;20200;-45
2021/03/22 02:47:25;;;;;;;6.38;3.15;;;4.10;91.60;;;;;;5051958;28;20220;-45
2021/03/22 02:49:55;;;;;;;8.38;3.28;;;3.70;91.70;;;;;;5052043;28;20191;-45
2021/03/22 02:52:46;;;;;;;8.00;3.00;;;4.00;92.10;;;;;;5051866;28;20199;-45
2021/03/22 02:55:21;;;;;;;7.93;2.40;;;3.70;92.20;;;;;;5041313;28;20694;-45
2021/03/22 02:57:53;;;;;;;8.88;3.20;;;4.00;92.10;;;;;;5051721;28;20238;-45
2021/03/22 03:00:24;;;;;;;8.82;2.78;;;3.80;92.70;;;;;;5052088;28;20657;-45
2021/03/22 03:02:54;;;;;;;12.18;2.25;;;3.50;92.80;;;;;;5051340;28;20218;-45
2021/03/22 03:05:23;;;;;;;9.90;3.33;;;3.60;93.30;;;;;;5051750;28;20180;-45
2021/03/22 03:07:49;;;;;;;9.80;2.80;;;3.50;93.80;;;;;;5065342;22;20280;-49
2021/03/22 03:10:18;;;;;;;8.77;3.05;;;4.00;94.40;;;;;;5051796;28;20279;-49
2021/03/22 03:12:45;;;;;;;6.93;2.35;;;3.50;94.40;;;;;;5051276;28;20337;-48
2021/03/22 03:15:14;;;;;;;5.50;2.58;;;3.50;94.70;;;;;;5051426;28;20226;-48
2021/03/22 03:17:40;;;;;;;11.35;3.85;;;3.70;95.00;;;;;;5051095;28;20215;-49
2021/03/22 03:20:10;;;;;;;6.53;2.78;;;3.80;95.10;;;;;;5051056;28;20636;-49
2021/03/22 03:22:40;;;;;;;9.20;3.03;;;3.70;95.10;;;;;;5050865;28;20257;-50
2021/03/22 03:25:07;;;;;;;4.68;2.38;;;3.60;95.40;;;;;;5051123;28;20627;-48
2021/03/22 03:27:34;;;;;;;11.55;3.38;;;3.50;96.00;;;;;;5033612;28;20692;-49
2021/03/22 03:30:00;;;;;;;6.50;3.15;;;3.50;96.20;;;;;;5051168;28;20290;-48
2021/03/22 03:32:26;;;;;;;4.78;2.53;;;3.60;96.60;;;;;;5051049;28;20644;-48
2021/03/22 03:34:53;;;;;;;14.15;3.15;;;3.70;97.20;;;;;;5051202;28;20606;-47
2021/03/22 03:37:19;;;;;;;8.48;3.50;;;3.40;97.10;;;;;;5050736;28;20231;-49
2021/03/22 03:39:47;;;;;;;8.15;2.67;;;3.50;97.20;;;;;;5050892;28;20227;-49
2021/03/22 03:42:13;;;;;;;6.78;3.60;;;4.00;97.70;;;;;;5050850;28;20196;-48
2021/03/22 03:44:40;;;;;;;9.82;2.90;;;3.40;97.60;;;;;;5050453;28;20290;-49
2021/03/22 03:47:07;;;;;;;5.82;2.80;;;3.50;97.80;;;;;;5050445;28;20219;-49
2021/03/22 03:49:34;;;;;;;8.88;2.58;;;3.50;98.10;;;;;;5050341;28;20210;-50
2021/03/22 03:52:00;;;;;;;4.45;2.65;;;3.60;98.30;;;;;;5031395;28;20196;-49
2021/03/22 03:54:27;;;;;;;8.10;3.35;;;3.50;98.40;;;;;;5049742;28;20218;-49
2021/03/22 03:56:54;;;;;;;9.50;3.47;;;3.50;98.80;;;;;;5050394;28;20219;-48
2021/03/22 03:59:20;;;;;;;8.20;3.28;;;3.30;99.00;;;;;;5032684;28;20200;-49
2021/03/22 04:01:46;;;;;;;8.00;2.75;;;3.40;99.40;;;;;;5050477;28;20219;-49
2021/03/22 04:04:12;;;;;;;10.77;3.65;;;3.60;99.70;;;;;;5032360;28;20286;-49
2021/03/22 04:06:38;;;;;;;8.75;3.45;;;3.40;99.80;;;;;;5050216;28;20219;-49
2021/03/22 04:09:07;;;;;;;9.35;3.67;;;3.40;99.90;;;;;;5050577;28;20197;-49
2021/03/22 04:11:36;;;;;;;11.02;3.38;;;3.40;99.90;;;;;;5050635;28;20191;-48
2021/03/22 04:14:04;;;;;;;7.07;3.40;;;3.50;99.90;;;;;;5050108;28;20283;-49
2021/03/22 04:16:32;;;;;;;12.57;3.05;;;3.30;99.90;;;;;;5032496;28;20228;-49
2021/03/22 04:18:58;;;;;;;11.75;4.57;;;3.40;99.90;;;;;;5050727;28;20196;-49
2021/03/22 04:21:28;;;;;;;6.18;3.20;;;2.90;99.90;;;;;;5050372;28;20200;-49
2021/03/22 04:23:56;;;;;;;11.48;2.72;;;3.20;99.90;;;;;;5052197;28;20207;-48
2021/03/22 04:26:22;;;;;;;11.18;3.20;;;3.40;99.90;;;;;;5053855;28;20184;-50
2021/03/22 04:28:49;;;;;;;10.73;3.78;;;3.10;99.90;;;;;;5053805;28;20199;-50
2021/03/22 04:31:18;;;;;;;11.77;3.50;;;3.20;99.90;;;;;;5053907;28;20690;-49
2021/03/22 04:33:45;;;;;;;12.38;4.07;;;3.20;99.90;;;;;;5053792;28;20196;-49
2021/03/22 04:36:12;;;;;;;14.52;3.65;;;3.10;99.90;;;;;;5053394;28;20251;-49
2021/03/22 04:38:39;;;;;;;12.15;3.80;;;3.20;99.90;;;;;;5053508;28;20687;-49
2021/03/22 04:41:06;;;;;;;15.25;4.07;;;3.10;99.90;;;;;;5035461;28;20215;-49
2021/03/22 04:43:33;;;;;;;16.67;4.28;;;3.10;99.90;;;;;;5053130;28;20188;-49
2021/03/22 04:45:59;;;;;;;13.43;3.03;;;2.60;99.90;;;;;;5053507;28;20719;-48
2021/03/22 04:48:26;;;;;;;8.80;2.80;;;3.10;99.90;;;;;;5035326;28;20223;-49
2021/03/22 04:50:53;;;;;;;9.68;3.90;;;3.00;99.90;;;;;;5053750;28;20651;-49
2021/03/22 04:53:19;;;;;;;14.35;3.60;;;3.30;99.90;;;;;;5052806;28;20200;-49
2021/03/22 04:55:45;;;;;;;8.32;3.08;;;3.20;99.90;;;;;;5035396;28;20224;-49
2021/03/22 04:58:12;;;;;;;8.45;3.20;;;3.00;99.90;;;;;;5053282;28;20216;-48
2021/03/22 05:00:41;;;;;;;10.85;3.45;;;3.10;99.90;;;;;;5053398;28;20220;-49
2021/03/22 05:03:08;;;;;;;12.63;3.95;;;2.90;99.90;;;;;;5052964;28;20199;-48
2021/03/22 05:05:36;;;;;;;6.30;2.80;;;2.90;99.90;;;;;;5053477;28;20602;-48
2021/03/22 05:08:04;;;;;;;7.43;2.70;;;3.40;99.90;;;;;;5053311;28;20232;-49
2021/03/22 05:10:33;;;;;;;10.80;3.47;;;3.00;99.90;;;;;;5053119;28;20192;-48
2021/03/22 05:12:59;;;;;;;12.05;3.40;;;3.60;99.90;;;;;;5052587;28;20223;-50
2021/03/22 05:15:27;;;;;;;9.88;3.35;;;3.10;99.90;;;;;;5052878;28;20195;-49
2021/03/22 05:17:54;;;;;;;8.15;3.63;;;3.40;99.90;;;;;;5055425;28;20237;-49
2021/03/22 05:20:24;;;;;;;12.20;3.60;;;2.90;99.90;;;;;;5054955;28;20191;-49
2021/03/22 05:22:51;;;;;;;10.82;3.72;;;3.20;99.90;;;;;;5054748;28;20226;-48
2021/03/22 05:25:18;;;;;;;14.60;3.85;;;3.00;99.90;;;;;;5052933;28;20617;-48
2021/03/22 05:27:45;;;;;;;15.25;3.47;;;3.10;99.90;;;;;;5052702;28;20261;-49
2021/03/22 05:30:14;;;;;;;15.32;5.70;;;3.00;99.90;;;;;;5052168;28;20217;-49
2021/03/22 05:32:40;;;;;;;13.73;4.53;;;3.10;99.90;;;;;;5052113;28;20187;-49
2021/03/22 05:35:11;;;;;;;16.38;5.40;;;3.10;99.90;;;;;;5051977;28;20188;-48
2021/03/22 05:37:37;;;;;;;11.82;4.20;;;3.10;99.90;;;;;;5052360;28;20309;-49
2021/03/22 05:40:07;;;;;;;13.18;4.72;;;3.10;99.90;;;;;;5052494;28;20199;-50
2021/03/22 05:42:49;;;;;;;16.50;4.97;;;3.00;99.90;;;;;;5051892;28;20415;-49
2021/03/22 05:45:29;;;;;;;9.15;3.42;;;3.00;99.90;;;;;;5052183;28;20241;-48
2021/03/22 05:48:02;;;;;;;13.77;4.13;;;3.10;99.90;;;;;;5052132;28;20222;-48
2021/03/22 05:50:35;;;;;;;14.10;5.75;;;3.00;99.90;;;;;;5052234;28;20204;-49
2021/03/22 05:53:25;;;;;;;14.35;5.07;;;2.60;99.90;;;;;;5051747;28;20192;-48
2021/03/22 05:55:54;;;;;;;19.75;5.07;;;3.40;99.90;;;;;;5051974;28;20258;-48
2021/03/22 05:58:33;;;;;;;15.98;5.20;;;3.30;99.90;;;;;;5051540;28;20242;-48
2021/03/22 06:01:05;;;;;;;13.07;4.45;;;3.30;99.90;;;;;;5033700;28;20620;-48
2021/03/22 06:03:38;;;;;;;12.98;4.50;;;3.20;99.90;;;;;;5033398;28;20195;-48
2021/03/22 06:06:15;;;;;;;8.13;3.85;;;3.30;99.90;;;;;;5052088;28;20687;-48
2021/03/22 06:08:48;;;;;;;11.70;4.38;;;3.10;99.90;;;;;;5051846;28;20192;-48
2021/03/22 06:11:28;;;;;;;10.48;4.30;;;3.50;99.90;;;;;;5034158;28;20253;-47
2021/03/22 06:14:01;;;;;;;12.88;4.15;;;3.20;99.90;;;;;;5051220;28;20687;-49
2021/03/22 06:16:34;;;;;;;13.48;4.10;;;3.50;99.90;;;;;;5051488;28;20684;-48
2021/03/22 06:19:04;;;;;;;25.38;5.00;;;3.50;99.90;;;;;;5051362;28;20262;-48
2021/03/22 06:21:34;;;;;;;15.45;4.65;;;3.50;99.90;;;;;;5051157;28;20207;-49
2021/03/22 06:24:06;;;;;;;12.85;4.35;;;3.40;99.90;;;;;;5050761;28;20200;-48
2021/03/22 06:26:40;;;;;;;16.70;5.55;;;3.40;99.90;;;;;;5051522;28;20590;-48
2021/03/22 06:29:14;;;;;;;13.13;5.00;;;3.80;99.90;;;;;;5051129;28;20200;-49
2021/03/22 06:31:41;;;;;;;13.18;4.70;;;3.70;99.90;;;;;;5051178;28;20199;-49
2021/03/22 06:34:10;;;;;;;19.25;5.10;;;4.00;99.90;;;;;;5050720;28;20282;-49
2021/03/22 06:36:36;;;;;;;15.48;6.00;;;3.90;99.90;;;;;;5050828;28;20700;-50
2021/03/22 06:39:07;;;;;;;14.68;4.28;;;3.90;99.90;;;;;;5051297;28;20200;-49
2021/03/22 06:41:41;;;;;;;10.95;6.03;;;3.60;99.90;;;;;;5051351;28;20269;-49
2021/03/22 06:44:10;;;;;;;18.60;5.90;;;4.10;99.90;;;;;;5050802;28;20199;-49
2021/03/22 06:46:59;;;;;;;14.05;4.30;;;4.40;99.90;;;;;;5050392;28;20220;-49
2021/03/22 06:49:28;;;;;;;17.83;5.13;;;4.20;99.90;;;;;;5050955;28;20549;-49
2021/03/22 06:52:05;;;;;;;14.82;4.85;;;4.30;99.90;;;;;;5050947;28;20577;-47
2021/03/22 06:54:36;;;;;;;12.57;4.43;;;4.30;99.90;;;;;;5051143;28;20210;-49
2021/03/22 06:57:08;;;;;;;14.95;4.93;;;4.60;99.90;;;;;;5050695;28;20302;-50
2021/03/22 06:59:34;;;;;;;19.50;5.10;;;4.40;99.90;;;;;;5052040;28;20196;-50
2021/03/22 07:02:22;;;;;;;10.10;3.35;;;4.50;99.90;;;;;;5052044;28;20203;-49
2021/03/22 07:04:49;;;;;;;11.68;3.20;;;4.50;99.90;;;;;;5051205;28;20231;-50
2021/03/22 07:07:20;;;;;;;15.13;4.40;;;4.70;99.90;;;;;;5032724;28;20699;-49
2021/03/22 07:09:53;;;;;;;18.30;5.03;;;4.50;99.90;;;;;;5032816;28;20203;-50
2021/03/22 07:12:30;;;;;;;9.25;4.20;;;4.00;99.90;;;;;;5050356;28;20256;-49
2021/03/22 07:15:19;;;;;;;13.80;4.70;;;4.70;99.90;;;;;;5050652;28;20199;-49
2021/03/22 07:18:08;;;;;;;10.13;4.07;;;4.60;99.90;;;;;;5050053;28;20223;-48
2021/03/22 07:20:34;;;;;;;16.00;4.45;;;4.70;99.90;;;;;;5050566;28;20214;-50
2021/03/22 07:23:34;;;;;;;13.43;4.00;;;5.00;99.90;;;;;;5032103;28;20595;-48
2021/03/22 07:26:07;;;;;;;15.13;4.82;;;5.30;99.90;;;;;;5050359;28;20196;-49
2021/03/22 07:28:44;;;;;;;9.75;4.03;;;5.40;99.90;;;;;;5050351;28;20188;-51
2021/03/22 07:31:21;;;;;;;15.93;5.15;;;5.20;99.90;;;;;;5050578;28;20219;-49
2021/03/22 07:33:57;;;;;;;10.35;4.22;;;5.30;99.90;;;;;;5050167;28;20699;-48
2021/03/22 07:36:34;;;;;;;10.48;4.82;;;5.50;99.90;;;;;;5050242;28;20212;-49
2021/03/22 07:39:34;;;;;;;10.32;4.93;;;5.80;99.90;;;;;;5050740;28;20602;-48
2021/03/22 07:42:24;;;;;;;17.27;4.05;;;5.50;99.90;;;;;;5050317;28;20192;-49
2021/03/22 07:45:30;;;;;;;11.00;4.43;;;5.50;99.90;;;;;;5050432;28;20196;-48
2021/03/22 07:48:27;;;;;;;16.85;3.90;;;5.50;99.90;;;;;;5050717;28;20285;-48
2021/03/22 07:51:02;;;;;;;6.65;2.80;;;5.80;99.50;;;;;;5050421;28;20208;-50
2021/03/22 07:53:37;;;;;;;8.70;3.22;;;5.80;98.60;;;;;;5032059;28;20545;-49
2021/03/22 07:56:13;;;;;;;9.00;4.15;;;5.90;98.30;;;;;;5049837;28;20219;-49
2021/03/22 07:58:57;;;;;;;7.15;2.80;;;6.00;98.00;;;;;;5053764;28;20196;-49
2021/03/22 08:01:50;;;;;;;6.93;2.60;;;5.80;97.60;;;;;;5054489;28;20602;-48
2021/03/22 08:04:40;;;;;;;8.73;3.10;;;5.80;96.90;;;;;;5054235;28;20529;-48
2021/03/22 08:07:19;;;;;;;6.30;2.70;;;5.80;96.50;;;;;;5054121;28;20239;-48
2021/03/22 08:10:02;;;;;;;7.00;4.85;;;6.40;96.60;;;;;;5036119;28;20203;-48
2021/03/22 08:12:36;;;;;;;5.10;2.78;;;6.20;96.00;;;;;;5053601;28;20660;-48
2021/03/22 08:15:18;;;;;;;9.05;3.13;;;6.20;95.40;;;;;;5054164;28;20349;-49
2021/03/22 08:17:58;;;;;;;9.82;5.60;;;6.20;95.90;;;;;;5053747;28;20664;-49
2021/03/22 08:20:29;;;;;;;6.55;2.92;;;5.70;95.30;;;;;;5053587;28;20327;-49
2021/03/22 08:23:02;;;;;;;10.10;2.40;;;6.20;95.10;;;;;;5053680;28;20601;-49
2021/03/22 08:25:35;;;;;;;8.35;2.95;;;6.20;95.00;;;;;;5053750;28;20325;-48
2021/03/22 08:28:15;;;;;;;6.38;2.63;;;6.40;94.80;;;;;;5053553;28;20239;-50
2021/03/22 08:30:47;;;;;;;10.63;3.80;;;6.50;94.60;;;;;;5053042;28;20215;-48
2021/03/22 08:33:20;;;;;;;6.38;2.55;;;6.70;94.30;;;;;;5052839;28;20235;-48
2021/03/22 08:35:54;;;;;;;3.10;2.15;;;6.50;93.30;;;;;;5053405;28;20235;-48
2021/03/22 08:38:40;;;;;;;6.95;3.00;;;6.50;93.30;;;;;;5052982;28;20276;-49
2021/03/22 08:41:23;;;;;;;4.97;2.13;;;6.50;92.80;;;;;;5036076;28;20687;-49
2021/03/22 08:43:54;;;;;;;7.28;2.63;;;6.70;92.50;;;;;;5053127;28;20521;-50
2021/03/22 08:46:30;;;;;;;4.82;2.03;;;6.70;92.20;;;;;;5053551;28;20237;-49
2021/03/22 08:49:00;;;;;;;10.18;2.40;;;6.60;91.80;;;;;;5053355;28;20528;-50
2021/03/22 08:51:31;;;;;;;7.00;2.27;;;6.90;91.60;;;;;;5053056;28;20213;-49
2021/03/22 08:53:59;;;;;;;4.72;2.00;;;7.10;90.70;;;;;;5052904;28;20448;-50
2021/03/22 08:56:36;;;;;;;10.68;3.15;;;6.80;91.10;;;;;;5034896;28;20220;-48
2021/03/22 08:59:09;;;;;;;5.97;2.00;;;7.20;90.80;;;;;;5052787;28;20196;-48
2021/03/22 09:01:38;;;;;;;8.63;2.10;;;7.00;90.00;;;;;;5052891;28;20982;-49
2021/03/22 09:04:27;;;;;;;6.43;2.40;;;7.30;87.70;;;;;;5052873;28;20867;-50
2021/03/22 09:07:01;;;;;;;5.80;2.27;;;7.20;87.90;;;;;;5052892;28;20464;-49
2021/03/22 09:09:30;;;;;;;7.43;1.93;;;7.30;88.20;;;;;;5052199;28;20440;-49
2021/03/22 09:11:58;;;;;;;6.10;2.10;;;7.20;85.20;;;;;;5052717;28;20485;-50
2021/03/22 09:14:42;;;;;;;7.33;2.33;;;7.20;85.10;;;;;;5053025;28;20770;-49
2021/03/22 09:17:34;;;;;;;6.27;1.77;;;7.70;85.70;;;;;;5052309;28;20983;-50
2021/03/22 09:20:22;;;;;;;5.87;2.40;;;7.50;84.50;;;;;;5052697;28;20442;-48
2021/03/22 09:23:00;;;;;;;6.00;2.33;;;7.70;84.50;;;;;;5052194;28;20496;-49
2021/03/22 09:26:03;;;;;;;4.00;2.10;;;7.50;82.70;;;;;;5052718;28;20432;-49
2021/03/22 09:28:44;;;;;;;10.60;2.47;;;7.50;81.10;;;;;;5052516;28;20447;-48
2021/03/22 09:31:36;;;;;;;6.50;2.43;;;7.60;82.10;;;;;;5052409;28;20450;-49
2021/03/22 09:34:05;;;;;;;7.27;2.03;;;7.40;80.60;;;;;;5045473;28;20772;-48
2021/03/22 09:36:36;;;;;;;8.37;2.57;;;7.80;80.80;;;;;;5052379;28;20483;-49
2021/03/22 09:39:26;;;;;;;4.40;2.50;;;7.90;80.70;;;;;;5052177;28;20873;-49
2021/03/22 09:42:18;;;;;;;6.53;2.20;;;7.80;79.30;;;;;;5052121;28;20474;-49
2021/03/22 09:45:17;;;;;;;5.83;2.30;;;7.40;75.60;;;;;;5034745;28;20475;-49
2021/03/22 09:47:44;;;;;;;5.30;2.00;;;7.70;76.20;;;;;;5052182;28;20460;-49
2021/03/22 09:50:23;;;;;;;4.73;1.80;;;8.00;74.00;;;;;;5052268;28;20857;-49
2021/03/22 09:53:15;;;;;;;3.33;1.83;;;7.60;72.90;;;;;;5051598;28;20922;-49
2021/03/22 09:56:04;;;;;;;3.43;1.40;;;7.60;73.90;;;;;;5052040;28;20485;-50
2021/03/22 09:58:37;;;;;;;2.83;1.60;;;8.10;72.00;;;;;;5041350;28;20586;-49
2021/03/22 10:01:07;;;;;;;3.60;1.73;;;7.70;71.20;;;;;;5051832;28;20424;-48
2021/03/22 10:03:38;;;;;;;2.83;1.40;;;7.70;69.30;;;;;;5051218;28;20440;-49
2021/03/22 10:06:07;;;;;;;6.30;2.10;;;7.70;71.10;;;;;;5052143;28;20421;-48
2021/03/22 10:08:37;;;;;;;6.50;2.00;;;7.60;71.10;;;;;;5051939;28;20945;-49
2021/03/22 10:11:07;;;;;;;5.30;1.97;;;7.80;72.70;;;;;;5051835;28;20504;-48
2021/03/22 10:13:41;;;;;;;6.47;1.67;;;7.60;71.30;;;;;;5052134;28;20786;-49
2021/03/22 10:16:12;;;;;;;5.23;2.30;;;7.70;71.30;;;;;;5034482;28;20468;-49
2021/03/22 10:18:42;;;;;;;5.63;1.87;;;8.10;70.40;;;;;;5052332;28;20435;-50
2021/03/22 10:21:13;;;;;;;9.17;1.80;;;7.60;67.80;;;;;;5052656;28;20862;-49
2021/03/22 10:23:55;;;;;;;6.77;1.90;;;8.10;68.80;;;;;;5032847;28;20498;-49
2021/03/22 10:26:26;;;;;;;3.30;1.97;;;7.70;67.90;;;;;;5051989;28;20436;-50
2021/03/22 10:29:14;;;;;;;3.40;1.60;;;7.80;66.80;;;;;;5052325;28;20435;-48
2021/03/22 10:31:42;;;;;;;3.87;1.30;;;7.70;64.70;;;;;;5052279;28;20907;-49
2021/03/22 10:34:20;;;;;;;3.00;1.33;;;7.90;62.90;;;;;;5051342;28;20953;-51
2021/03/22 10:36:48;;;;;;;3.10;1.47;;;8.20;62.40;;;;;;5051373;28;20470;-49
2021/03/22 10:39:23;;;;;;;3.57;1.53;;;8.00;61.90;;;;;;5051358;28;20470;-49
2021/03/22 10:41:50;;;;;;;2.30;1.20;;;8.20;59.30;;;;;;5051717;28;20442;-49
2021/03/22 10:44:22;;;;;;;4.17;1.53;;;7.90;60.60;;;;;;5051082;28;20756;-50
2021/03/22 10:47:02;;;;;;;2.03;1.30;;;8.30;61.40;;;;;;5051174;28;20948;-49
2021/03/22 10:49:28;;;;;;;3.00;1.50;;;8.10;60.90;;;;;;5051685;28;20435;-49
2021/03/22 10:51:57;;;;;;;2.87;1.53;;;8.10;59.50;;;;;;5051517;28;20459;-49
2021/03/22 10:54:41;;;;;;;4.60;1.73;;;8.30;60.60;;;;;;5051100;28;20474;-49
2021/03/22 10:57:16;;;;;;;4.20;1.23;;;8.20;60.70;;;;;;5051284;28;20546;-49
2021/03/22 10:59:47;;;;;;;3.67;1.93;;;8.70;59.70;;;;;;5051724;28;20756;-50
2021/03/22 11:02:23;;;;;;;1.80;0.80;;;8.20;57.60;;;;;;5051346;28;20519;-49
2021/03/22 11:04:51;;;;;;;3.23;1.20;;;8.40;56.70;;;;;;5050758;28;20443;-50
2021/03/22 11:07:20;;;;;;;2.80;1.10;;;8.20;55.80;;;;;;5033157;28;20490;-50
2021/03/22 11:09:57;;;;;;;6.60;1.43;;;8.40;56.10;;;;;;5051358;28;20428;-49
2021/03/22 11:12:25;;;;;;;3.47;1.10;;;8.60;56.30;;;;;;5050692;28;20436;-49
2021/03/22 11:15:01;;;;;;;3.63;1.30;;;8.30;56.70;;;;;;5050958;28;20944;-48
2021/03/22 11:17:29;;;;;;;3.50;1.40;;;8.50;57.60;;;;;;5051568;28;20492;-50
2021/03/22 11:19:56;;;;;;;2.63;1.33;;;8.60;57.50;;;;;;5051474;28;20978;-50
2021/03/22 11:22:27;;;;;;;4.87;1.83;;;8.50;57.20;;;;;;5051100;28;20440;-50
2021/03/22 11:24:56;;;;;;;6.13;1.17;;;8.50;58.00;;;;;;5051140;28;20460;-50
2021/03/22 11:27:24;;;;;;;1.90;0.90;;;8.40;57.90;;;;;;5051275;28;20839;-50
2021/03/22 11:29:58;;;;;;;5.33;1.40;;;8.50;57.70;;;;;;5051256;28;20483;-50
2021/03/22 11:32:27;;;;;;;8.83;1.60;;;8.00;57.20;;;;;;5052020;28;20449;-51
2021/03/22 11:34:55;;;;;;;6.67;1.63;;;8.70;57.80;;;;;;5055187;28;20493;-49
2021/03/22 11:37:24;;;;;;;5.50;1.87;;;8.00;57.10;;;;;;5055110;28;20528;-49
2021/03/22 11:40:04;;;;;;;3.20;1.60;;;8.60;58.10;;;;;;5055035;28;20477;-49
2021/03/22 11:42:36;;;;;;;6.13;1.77;;;8.80;57.90;;;;;;5054440;28;20432;-49
2021/03/22 11:45:23;;;;;;;4.37;1.77;;;9.10;58.50;;;;;;5055294;28;20801;-50
2021/03/22 11:47:49;;;;;;;2.10;1.50;;;9.00;58.00;;;;;;5054848;28;20975;-49
2021/03/22 11:50:41;;;;;;;3.67;1.60;;;9.00;58.20;;;;;;5054475;28;20511;-50
2021/03/22 11:53:22;;;;;;;4.10;1.67;;;8.90;57.80;;;;;;5036854;28;20938;-50
2021/03/22 11:55:52;;;;;;;3.53;1.47;;;9.10;57.80;;;;;;5051324;28;20419;-48
2021/03/22 11:58:38;;;;;;;3.90;1.63;;;9.00;56.90;;;;;;5054381;28;20473;-48
2021/03/22 12:01:24;;;;;;;2.23;1.07;;;9.00;57.00;;;;;;5054582;28;20426;-50
2021/03/22 12:04:10;;;;;;;3.50;1.20;;;9.00;55.10;;;;;;5054420;28;20440;-49
2021/03/22 12:07:01;;;;;;;2.33;1.00;;;9.00;54.30;;;;;;5054562;28;20941;-49
2021/03/22 12:09:29;;;;;;;3.23;1.63;;;8.90;54.80;;;;;;5054303;28;20514;-49
2021/03/22 12:11:58;;;;;;;2.10;1.10;;;8.50;54.90;;;;;;5053688;28;20429;-49
2021/03/22 12:14:25;;;;;;;2.43;1.60;;;9.00;55.00;;;;;;5053459;28;20503;-49
2021/03/22 12:17:01;;;;;;;3.13;1.30;;;9.30;54.80;;;;;;5053513;28;20588;-49
2021/03/22 12:19:34;;;;;;;2.23;1.47;;;9.00;55.10;;;;;;5053725;28;20437;-49
2021/03/22 12:22:00;;;;;;;3.37;1.33;;;9.00;54.80;;;;;;5053488;28;20401;-48
2021/03/22 12:24:27;;;;;;;2.90;1.50;;;9.20;54.70;;;;;;5053507;28;20492;-50
2021/03/22 12:26:53;;;;;;;3.63;1.50;;;9.20;55.30;;;;;;5053617;28;20483;-49
2021/03/22 12:29:20;;;;;;;3.50;1.47;;;9.20;54.20;;;;;;5053534;28;20929;-49
2021/03/22 12:31:49;;;;;;;3.03;1.33;;;9.20;53.70;;;;;;5053428;28;20440;-50
2021/03/22 12:34:19;;;;;;;6.30;1.43;;;9.10;54.40;;;;;;5052770;28;20434;-49
2021/03/22 12:36:46;;;;;;;1.87;1.10;;;9.50;54.60;;;;;;5053445;28;20554;-50
2021/03/22 12:39:19;;;;;;;9.03;2.23;;;9.50;55.00;;;;;;5053235;28;20815;-48
2021/03/22 12:41:46;;;;;;;2.33;1.30;;;9.40;55.30;;;;;;5053240;28;20514;-48
2021/03/22 12:44:13;;;;;;;2.30;1.23;;;9.30;54.90;;;;;;5051773;28;20441;-50
2021/03/22 12:46:41;;;;;;;3.17;1.50;;;9.40;54.30;;;;;;5035062;28;20470;-48
2021/03/22 12:49:12;;;;;;;4.20;1.83;;;9.40;54.30;;;;;;5052650;28;20409;-48
2021/03/22 12:51:38;;;;;;;1.80;1.10;;;9.70;55.00;;;;;;5052871;28;20544;-49
2021/03/22 12:54:05;;;;;;;3.50;1.40;;;9.50;54.40;;;;;;5052403;28;20421;-49
2021/03/22 12:56:33;;;;;;;2.57;1.20;;;9.40;53.80;;;;;;5052293;28;20886;-48
2021/03/22 12:58:59;;;;;;;5.40;1.37;;;9.70;53.60;;;;;;5052679;28;20592;-50
2021/03/22 13:01:27;;;;;;;2.33;1.70;;;9.90;52.50;;;;;;5052641;28;20482;-48
2021/03/22 13:03:54;;;;;;;4.17;1.67;;;9.50;52.40;;;;;;5052809;28;20431;-48
2021/03/22 13:06:23;;;;;;;5.20;1.50;;;9.80;52.50;;;;;;5052307;28;20443;-49
2021/03/22 13:08:50;;;;;;;2.60;1.23;;;9.90;53.70;;;;;;5034469;28;20447;-49
2021/03/22 13:11:24;;;;;;;3.83;1.67;;;9.90;52.30;;;;;;5052945;28;20523;-49
2021/03/22 13:13:51;;;;;;;2.83;1.40;;;10.10;52.10;;;;;;5052651;28;20415;-50
2021/03/22 13:16:20;;;;;;;4.20;1.53;;;10.20;51.70;;;;;;5052451;28;20431;-49
2021/03/22 13:18:47;;;;;;;6.50;1.93;;;10.10;52.30;;;;;;5034610;28;21003;-49
2021/03/22 13:21:17;;;;;;;2.80;1.63;;;10.70;52.70;;;;;;5052732;28;20525;-49
2021/03/22 13:23:44;;;;;;;6.10;1.30;;;10.50;53.20;;;;;;5052405;28;20470;-50